createdAt,value
2022-09-12T00:01:16.099Z,15.05
2022-09-12T00:03:43.475Z,15.02
2022-09-12T00:06:23.191Z,15.65
2022-09-12T00:08:50.851Z,15.43
2022-09-12T00:11:18.038Z,15.15
2022-09-12T00:13:45.417Z,16.60
2022-09-12T00:16:17.173Z,16.35
2022-09-12T00:18:46.820Z,14.90
2022-09-12T00:21:14.599Z,15.50
2022-09-12T00:23:41.737Z,15.50
2022-09-12T00:26:09.721Z,16.38
2022-09-12T00:28:37.549Z,16.80
2022-09-12T00:31:06.277Z,16.00
2022-09-12T00:33:33.576Z,16.27
2022-09-12T00:36:00.912Z,16.70
2022-09-12T00:38:28.078Z,16.80
2022-09-12T00:40:55.286Z,17.55
2022-09-12T00:43:31.652Z,18.38
2022-09-12T00:45:59.788Z,17.42
2022-09-12T00:48:34.605Z,17.35
2022-09-12T00:51:02.201Z,16.98
2022-09-12T00:53:29.380Z,17.95
2022-09-12T00:55:57.485Z,19.00
2022-09-12T00:58:29.765Z,18.48
2022-09-12T01:00:58.224Z,17.73
2022-09-12T01:03:26.063Z,18.42
2022-09-12T01:05:56.639Z,18.45
2022-09-12T01:08:24.330Z,20.02
2022-09-12T01:10:51.660Z,18.70
2022-09-12T01:13:18.869Z,19.77
2022-09-12T01:15:46.636Z,19.88
2022-09-12T01:18:17.442Z,19.73
2022-09-12T01:20:57.973Z,18.75
2022-09-12T01:23:31.092Z,21.30
2022-09-12T01:26:09.321Z,19.85
2022-09-12T01:28:54.075Z,21.38
2022-09-12T01:31:24.358Z,20.98
2022-09-12T01:34:07.298Z,19.17
2022-09-12T01:36:38.199Z,20.17
2022-09-12T01:39:06.761Z,21.30
2022-09-12T01:41:55.900Z,22.15
2022-09-12T01:44:26.002Z,21.58
2022-09-12T01:47:13.437Z,21.42
2022-09-12T01:49:40.958Z,20.35
2022-09-12T01:52:26.617Z,22.63
2022-09-12T01:54:57.128Z,21.83
2022-09-12T01:57:34.049Z,21.58
2022-09-12T02:00:04.336Z,22.25
2022-09-12T02:02:36.498Z,22.02
2022-09-12T02:05:07.807Z,20.70
2022-09-12T02:07:57.060Z,21.58
2022-09-12T02:10:31.761Z,22.52
2022-09-12T02:13:02.720Z,21.35
2022-09-12T02:15:33.510Z,21.48
2022-09-12T02:18:02.201Z,19.90
2022-09-12T02:20:47.318Z,21.90
2022-09-12T02:23:17.825Z,19.83
2022-09-12T02:25:47.638Z,21.02
2022-09-12T02:28:16.217Z,21.50
2022-09-12T02:30:52.814Z,19.92
2022-09-12T02:33:40.301Z,20.73
2022-09-12T02:36:07.597Z,21.17
2022-09-12T02:38:41.749Z,20.95
2022-09-12T02:41:09.059Z,21.52
2022-09-12T02:43:37.825Z,21.33
2022-09-12T02:46:07.415Z,21.63
2022-09-12T02:48:37.872Z,22.55
2022-09-12T02:51:05.103Z,20.33
2022-09-12T02:53:33.763Z,21.77
2022-09-12T02:56:00.923Z,21.27
2022-09-12T02:58:30.116Z,20.08
2022-09-12T03:01:15.827Z,21.23
2022-09-12T03:03:52.732Z,21.98
2022-09-12T03:06:38.521Z,21.77
2022-09-12T03:09:19.267Z,21.55
2022-09-12T03:11:46.463Z,21.83
2022-09-12T03:14:28.749Z,23.33
2022-09-12T03:16:55.873Z,21.95
2022-09-12T03:19:41.629Z,23.65
2022-09-12T03:22:27.759Z,22.30
2022-09-12T03:25:15.101Z,22.92
2022-09-12T03:28:01.173Z,22.95
2022-09-12T03:30:28.854Z,24.48
2022-09-12T03:32:56.118Z,23.75
2022-09-12T03:35:24.740Z,23.52
2022-09-12T03:37:52.743Z,23.63
2022-09-12T03:40:20.008Z,23.65
2022-09-12T03:42:47.270Z,22.60
2022-09-12T03:45:14.504Z,23.58
2022-09-12T03:47:41.733Z,25.23
2022-09-12T03:50:09.114Z,25.30
2022-09-12T03:52:36.493Z,24.65
2022-09-12T03:55:03.775Z,26.13
2022-09-12T03:57:30.938Z,25.52
2022-09-12T03:59:58.148Z,25.88
2022-09-12T04:02:25.328Z,27.30
2022-09-12T04:04:52.670Z,25.38
2022-09-12T04:07:19.854Z,27.35
2022-09-12T04:09:47.260Z,29.52
2022-09-12T04:12:14.461Z,28.67
2022-09-12T04:14:41.804Z,28.25
2022-09-12T04:17:09.188Z,28.15
2022-09-12T04:19:36.356Z,28.90
2022-09-12T04:22:03.909Z,28.63
2022-09-12T04:24:31.119Z,28.25
2022-09-12T04:26:58.329Z,27.63
2022-09-12T04:29:25.556Z,29.35
2022-09-12T04:31:52.955Z,30.15
2022-09-12T04:34:20.145Z,30.70
2022-09-12T04:36:47.366Z,32.50
2022-09-12T04:39:14.572Z,31.85
2022-09-12T04:41:42.063Z,32.30
2022-09-12T04:44:12.225Z,32.55
2022-09-12T04:46:42.158Z,32.65
2022-09-12T04:49:09.779Z,34.65
2022-09-12T04:51:37.800Z,34.22
2022-09-12T04:54:07.153Z,35.47
2022-09-12T04:56:37.505Z,34.08
2022-09-12T04:59:04.863Z,36.40
2022-09-12T05:01:32.524Z,36.75
2022-09-12T05:04:00.259Z,36.63
2022-09-12T05:06:30.269Z,38.28
2022-09-12T05:08:58.530Z,37.90
2022-09-12T05:11:59.621Z,36.72
2022-09-12T05:14:20.408Z,40.20
2022-09-12T05:16:49.673Z,38.20
2022-09-12T05:19:17.241Z,40.72
2022-09-12T05:21:44.601Z,39.58
2022-09-12T05:24:12.184Z,41.88
2022-09-12T05:26:39.398Z,40.65
2022-09-12T05:29:07.314Z,42.10
2022-09-12T05:31:35.458Z,40.40
2022-09-12T05:34:05.926Z,41.97
2022-09-12T05:36:34.065Z,39.92
2022-09-12T05:39:01.931Z,41.00
2022-09-12T05:41:31.055Z,35.40
2022-09-12T05:43:59.459Z,39.92
2022-09-12T05:46:28.503Z,38.97
2022-09-12T05:48:56.826Z,40.00
2022-09-12T05:51:28.654Z,39.78
2022-09-12T05:54:00.989Z,37.78
2022-09-12T05:56:29.810Z,39.70
2022-09-12T05:58:57.940Z,38.88
2022-09-12T06:01:26.194Z,40.30
2022-09-12T06:03:54.829Z,42.03
2022-09-12T06:06:23.036Z,43.63
2022-09-12T06:08:51.653Z,42.00
2022-09-12T06:11:20.962Z,39.03
2022-09-12T06:13:48.406Z,39.70
2022-09-12T06:16:20.164Z,39.92
2022-09-12T06:18:48.557Z,38.13
2022-09-12T06:21:15.773Z,38.72
2022-09-12T06:23:44.998Z,38.30
2022-09-12T06:26:13.132Z,39.28
2022-09-12T06:28:42.188Z,38.45
2022-09-12T06:31:11.336Z,38.10
2022-09-12T06:33:39.949Z,37.47
2022-09-12T06:36:12.668Z,36.95
2022-09-12T06:38:40.861Z,35.47
2022-09-12T06:41:10.178Z,37.53
2022-09-12T06:43:37.374Z,35.08
2022-09-12T06:46:04.858Z,34.15
2022-09-12T06:48:32.553Z,36.00
2022-09-12T06:51:04.851Z,37.17
2022-09-12T06:53:39.351Z,35.22
2022-09-12T06:56:09.712Z,36.88
2022-09-12T06:58:37.225Z,35.17
2022-09-12T07:01:05.832Z,34.95
2022-09-12T07:03:33.667Z,35.80
2022-09-12T07:06:08.297Z,36.90
2022-09-12T07:08:37.343Z,34.00
2022-09-12T07:11:11.923Z,35.47
2022-09-12T07:13:39.609Z,34.10
2022-09-12T07:16:07.159Z,36.42
2022-09-12T07:18:34.900Z,35.05
2022-09-12T07:21:02.467Z,34.30
2022-09-12T07:23:30.666Z,33.05
2022-09-12T07:25:58.857Z,34.90
2022-09-12T07:28:27.239Z,36.72
2022-09-12T07:30:54.623Z,37.25
2022-09-12T07:33:22.847Z,35.80
2022-09-12T07:35:50.113Z,35.25
2022-09-12T07:38:17.577Z,34.65
2022-09-12T07:40:44.724Z,34.83
2022-09-12T07:43:11.871Z,33.88
2022-09-12T07:45:41.996Z,34.28
2022-09-12T07:48:09.610Z,32.08
2022-09-12T07:50:36.786Z,32.17
2022-09-12T07:53:06.516Z,31.73
2022-09-12T07:55:34.057Z,31.60
2022-09-12T07:58:01.286Z,29.60
2022-09-12T08:00:35.773Z,30.05
2022-09-12T08:03:03.958Z,28.00
2022-09-12T08:05:31.366Z,27.90
2022-09-12T08:07:59.144Z,27.23
2022-09-12T08:10:26.366Z,26.92
2022-09-12T08:12:53.537Z,27.48
2022-09-12T08:15:20.747Z,25.30
2022-09-12T08:17:48.509Z,25.08
2022-09-12T08:20:15.798Z,24.08
2022-09-12T08:22:43.495Z,25.15
2022-09-12T08:25:10.850Z,23.77
2022-09-12T08:27:40.744Z,23.52
2022-09-12T08:30:09.300Z,22.30
2022-09-12T08:32:36.841Z,21.70
2022-09-12T08:35:04.229Z,19.80
2022-09-12T08:37:31.813Z,20.73
2022-09-12T08:39:59.112Z,20.45
2022-09-12T08:42:45.618Z,19.33
2022-09-12T08:45:18.973Z,16.98
2022-09-12T08:47:47.535Z,18.38
2022-09-12T08:50:17.829Z,19.13
2022-09-12T08:52:48.372Z,18.40
2022-09-12T08:55:34.209Z,18.63
2022-09-12T09:00:38.228Z,16.55
2022-09-12T09:03:10.998Z,16.90
2022-09-12T09:05:57.409Z,17.85
2022-09-12T09:08:24.758Z,17.40
2022-09-12T09:11:06.175Z,15.93
2022-09-12T09:14:04.485Z,16.85
2022-09-12T09:16:58.908Z,15.30
2022-09-12T09:19:33.187Z,15.45
2022-09-12T09:22:18.312Z,14.40
2022-09-12T09:24:49.657Z,15.23
2022-09-12T09:27:41.635Z,14.57
2022-09-12T09:30:13.966Z,15.02
2022-09-12T09:32:42.504Z,15.07
2022-09-12T09:35:16.515Z,13.52
2022-09-12T09:37:45.815Z,14.15
2022-09-12T09:40:25.613Z,14.38
2022-09-12T09:43:07.053Z,15.05
2022-09-12T09:45:34.715Z,10.55
2022-09-12T09:48:05.704Z,12.45
2022-09-12T09:50:34.337Z,11.05
2022-09-12T09:53:04.853Z,11.25
2022-09-12T09:55:35.296Z,9.77
2022-09-12T09:58:03.315Z,9.20
2022-09-12T10:00:32.231Z,8.60
2022-09-12T10:03:01.092Z,7.93
2022-09-12T10:05:28.869Z,8.15
2022-09-12T10:07:56.155Z,7.72
2022-09-12T10:10:23.627Z,8.32
2022-09-12T10:12:51.150Z,8.10
2022-09-12T10:15:23.262Z,7.15
2022-09-12T10:17:51.688Z,7.25
2022-09-12T10:20:31.282Z,6.93
2022-09-12T10:23:04.437Z,6.82
2022-09-12T10:25:32.268Z,6.35
2022-09-12T10:28:00.562Z,7.32
2022-09-12T10:30:28.986Z,7.30
2022-09-12T10:33:06.468Z,7.22
2022-09-12T10:35:43.741Z,6.63
2022-09-12T10:38:18.247Z,6.72
2022-09-12T10:40:45.545Z,6.53
2022-09-12T10:43:19.548Z,6.40
2022-09-12T10:45:46.857Z,6.57
2022-09-12T10:48:26.220Z,8.55
2022-09-12T10:50:53.498Z,9.20
2022-09-12T10:53:25.178Z,8.02
2022-09-12T10:55:58.161Z,10.98
2022-09-12T10:58:31.067Z,10.45
2022-09-12T11:01:04.420Z,9.52
2022-09-12T11:03:38.629Z,11.55
2022-09-12T11:06:06.565Z,15.48
2022-09-12T11:08:53.530Z,14.85
2022-09-12T11:11:38.920Z,17.35
2022-09-12T11:14:13.965Z,17.50
2022-09-12T11:19:28.898Z,14.75
2022-09-12T11:21:59.104Z,13.18
2022-09-12T11:24:33.794Z,14.65
2022-09-12T11:27:01.053Z,15.02
2022-09-12T11:29:47.199Z,12.52
2022-09-12T11:32:14.413Z,13.98
2022-09-12T11:34:44.771Z,13.48
2022-09-12T11:37:17.925Z,10.35
2022-09-12T11:39:47.598Z,10.85
2022-09-12T11:42:32.816Z,13.32
2022-09-12T11:45:04.629Z,11.23
2022-09-12T11:47:33.237Z,11.18
2022-09-12T11:50:00.940Z,11.95
2022-09-12T11:52:34.864Z,10.38
2022-09-12T11:55:02.033Z,10.52
2022-09-12T11:57:38.132Z,10.65
2022-09-12T12:00:07.961Z,9.85
2022-09-12T12:03:01.494Z,9.88
2022-09-12T12:05:44.193Z,7.90
2022-09-12T12:08:12.132Z,7.75
2022-09-12T12:10:44.234Z,7.75
2022-09-12T12:13:18.131Z,7.93
2022-09-12T12:15:48.442Z,7.60
2022-09-12T12:18:20.493Z,6.65
2022-09-12T12:20:48.024Z,7.30
2022-09-12T12:23:29.887Z,7.60
2022-09-12T12:25:58.541Z,6.38
2022-09-12T12:28:50.637Z,8.30
2022-09-12T12:31:18.517Z,8.57
2022-09-12T12:33:46.090Z,7.72
2022-09-12T12:36:33.961Z,7.78
2022-09-12T12:39:21.080Z,8.60
2022-09-12T12:41:48.212Z,7.13
2022-09-12T12:44:34.072Z,7.70
2022-09-12T12:47:16.569Z,7.45
2022-09-12T12:49:52.026Z,7.72
2022-09-12T12:52:19.498Z,8.68
2022-09-12T12:54:46.694Z,8.35
2022-09-12T12:57:13.824Z,6.28
2022-09-12T13:00:08.841Z,7.60
2022-09-12T13:02:39.311Z,7.97
2022-09-12T13:05:08.083Z,7.70
2022-09-12T13:07:39.881Z,8.55
2022-09-12T13:10:08.745Z,8.00
2022-09-12T13:12:38.528Z,8.35
2022-09-12T13:15:25.893Z,9.85
2022-09-12T13:17:53.324Z,9.95
2022-09-12T13:20:29.394Z,9.75
2022-09-12T13:22:57.667Z,10.32
2022-09-12T13:25:37.575Z,8.85
2022-09-12T13:28:04.745Z,7.35
2022-09-12T13:30:33.679Z,7.97
2022-09-12T13:33:06.235Z,9.18
2022-09-12T13:35:53.885Z,7.97
2022-09-12T13:38:21.157Z,8.93
2022-09-12T13:40:58.930Z,9.63
2022-09-12T13:43:37.992Z,8.25
2022-09-12T13:46:06.269Z,7.53
2022-09-12T13:48:34.125Z,7.50
2022-09-12T13:51:02.860Z,6.95
2022-09-12T13:53:42.657Z,6.72
2022-09-12T13:56:16.028Z,7.43
2022-09-12T13:58:52.241Z,8.05
2022-09-12T14:01:19.470Z,7.57
2022-09-12T14:04:05.455Z,6.65
2022-09-12T14:06:44.449Z,5.60
2022-09-12T14:09:16.177Z,5.82
2022-09-12T14:11:43.485Z,6.18
2022-09-12T14:14:31.378Z,6.53
2022-09-12T14:16:59.182Z,6.10
2022-09-12T14:19:29.226Z,6.25
2022-09-12T14:21:57.928Z,4.90
2022-09-12T14:24:25.259Z,5.82
2022-09-12T14:26:55.348Z,6.35
2022-09-12T14:29:22.736Z,6.35
2022-09-12T14:32:01.523Z,6.03
2022-09-12T14:34:28.966Z,5.80
2022-09-12T14:36:57.221Z,6.47
2022-09-12T14:39:24.432Z,6.50
2022-09-12T14:41:52.821Z,6.07
2022-09-12T14:44:27.584Z,5.85
2022-09-12T14:46:55.034Z,5.18
2022-09-12T14:49:22.507Z,4.70
2022-09-12T14:51:52.466Z,5.35
2022-09-12T14:54:28.599Z,6.05
2022-09-12T14:57:03.377Z,5.40
2022-09-12T14:59:36.634Z,5.72
2022-09-12T15:02:15.913Z,5.45
2022-09-12T15:04:48.122Z,5.32
2022-09-12T15:07:29.376Z,5.53
2022-09-12T15:09:56.755Z,5.20
2022-09-12T15:12:23.958Z,5.07
2022-09-12T15:14:51.204Z,6.32
2022-09-12T15:17:18.453Z,5.80
2022-09-12T15:19:45.626Z,6.05
2022-09-12T15:22:13.824Z,5.68
2022-09-12T15:24:43.973Z,6.45
2022-09-12T15:27:12.264Z,6.15
2022-09-12T15:29:40.041Z,5.07
2022-09-12T15:32:07.560Z,5.00
2022-09-12T15:34:34.753Z,5.95
2022-09-12T15:37:01.925Z,5.78
2022-09-12T15:39:29.057Z,6.40
2022-09-12T15:41:56.372Z,5.43
2022-09-12T15:44:23.698Z,5.20
2022-09-12T15:46:50.895Z,6.15
2022-09-12T15:49:18.365Z,5.15
2022-09-12T15:51:45.528Z,5.55
2022-09-12T15:54:14.943Z,5.38
2022-09-12T15:56:42.120Z,4.60
2022-09-12T15:59:09.461Z,5.22
2022-09-12T16:01:36.616Z,4.97
2022-09-12T16:04:04.245Z,4.78
2022-09-12T16:06:37.269Z,5.13
2022-09-12T16:09:04.862Z,4.57
2022-09-12T16:11:32.957Z,4.72
2022-09-12T16:14:00.252Z,4.45
2022-09-12T16:16:27.426Z,4.65
2022-09-12T16:18:54.627Z,4.97
2022-09-12T16:21:21.828Z,4.93
2022-09-12T16:23:49.622Z,4.70
2022-09-12T16:26:17.483Z,4.35
2022-09-12T16:28:44.962Z,4.82
2022-09-12T16:31:13.845Z,4.70
2022-09-12T16:33:41.561Z,5.53
2022-09-12T16:36:10.549Z,4.88
2022-09-12T16:38:54.154Z,4.43
2022-09-12T16:41:22.476Z,5.03
2022-09-12T16:43:49.649Z,5.18
2022-09-12T16:46:16.862Z,4.57
2022-09-12T16:48:52.112Z,5.72
2022-09-12T16:51:21.771Z,4.78
2022-09-12T16:53:49.704Z,5.05
2022-09-12T16:56:16.925Z,4.32
2022-09-12T16:58:44.296Z,4.30
2022-09-12T17:01:12.829Z,4.43
2022-09-12T17:03:40.093Z,5.05
2022-09-12T17:06:09.017Z,5.05
2022-09-12T17:08:37.325Z,5.13
2022-09-12T17:11:09.159Z,4.70
2022-09-12T17:14:00.074Z,4.90
2022-09-12T17:16:23.960Z,4.72
2022-09-12T17:18:52.615Z,5.57
2022-09-12T17:21:20.381Z,4.97
2022-09-12T17:23:48.194Z,4.68
2022-09-12T17:26:15.668Z,4.65
2022-09-12T17:28:43.924Z,4.93
2022-09-12T17:31:12.217Z,4.72
2022-09-12T17:33:39.981Z,4.75
2022-09-12T17:36:09.249Z,4.88
2022-09-12T17:38:37.338Z,4.60
2022-09-12T17:41:07.687Z,4.60
2022-09-12T17:43:36.694Z,4.18
2022-09-12T17:46:03.940Z,4.90
2022-09-12T17:48:31.337Z,4.68
2022-09-12T17:50:59.307Z,4.63
2022-09-12T17:53:26.729Z,4.93
2022-09-12T17:55:54.478Z,4.70
2022-09-12T17:58:21.773Z,4.15
2022-09-12T18:01:07.893Z,4.60
2022-09-12T18:03:35.248Z,4.40
2022-09-12T18:06:02.552Z,4.63
2022-09-12T18:08:29.692Z,4.68
2022-09-12T18:11:03.796Z,5.18
2022-09-12T18:13:32.284Z,5.15
2022-09-12T18:16:10.949Z,5.18
2022-09-12T18:18:38.899Z,5.38
2022-09-12T18:21:06.926Z,5.55
2022-09-12T18:23:34.617Z,5.80
2022-09-12T18:26:03.381Z,5.10
2022-09-12T18:28:32.617Z,4.80
2022-09-12T18:30:59.915Z,4.82
2022-09-12T18:33:27.180Z,5.25
2022-09-12T18:35:54.688Z,5.78
2022-09-12T18:38:22.037Z,5.47
2022-09-12T18:40:49.247Z,6.00
2022-09-12T18:43:16.549Z,5.18
2022-09-12T18:45:43.727Z,5.63
2022-09-12T18:48:11.079Z,5.45
2022-09-12T18:50:38.252Z,6.15
2022-09-12T18:53:05.393Z,5.82
2022-09-12T18:55:32.972Z,6.28
2022-09-12T18:58:00.179Z,5.85
2022-09-12T19:00:27.337Z,5.30
2022-09-12T19:02:54.585Z,5.90
2022-09-12T19:05:21.745Z,6.55
2022-09-12T19:07:48.921Z,5.88
2022-09-12T19:10:16.099Z,6.03
2022-09-12T19:12:43.856Z,6.07
2022-09-12T19:15:11.168Z,6.50
2022-09-12T19:17:38.392Z,6.45
2022-09-12T19:20:06.118Z,6.28
2022-09-12T19:22:33.265Z,6.00
2022-09-12T19:25:00.453Z,6.15
2022-09-12T19:27:27.668Z,6.32
2022-09-12T19:29:54.964Z,5.75
2022-09-12T19:32:22.179Z,6.22
2022-09-12T19:34:49.329Z,6.15
2022-09-12T19:37:16.533Z,6.32
2022-09-12T19:39:45.274Z,7.47
2022-09-12T19:42:12.537Z,6.55
2022-09-12T19:44:39.668Z,8.82
2022-09-12T19:47:07.080Z,7.47
2022-09-12T19:49:34.275Z,7.30
2022-09-12T19:52:01.474Z,8.50
2022-09-12T19:54:28.625Z,7.80
2022-09-12T19:56:55.810Z,8.00
2022-09-12T19:59:22.983Z,8.68
2022-09-12T20:01:50.176Z,8.70
2022-09-12T20:04:17.445Z,9.23
2022-09-12T20:06:50.091Z,8.15
2022-09-12T20:09:17.254Z,9.00
2022-09-12T20:11:44.686Z,8.70
2022-09-12T20:14:11.908Z,9.23
2022-09-12T20:16:39.080Z,8.98
2022-09-12T20:19:07.238Z,9.40
2022-09-12T20:21:35.977Z,9.98
2022-09-12T20:24:13.857Z,9.18
2022-09-12T20:26:41.327Z,9.68
2022-09-12T20:29:09.412Z,8.75
2022-09-12T20:31:37.749Z,9.77
2022-09-12T20:34:05.717Z,8.88
2022-09-12T20:36:33.177Z,7.57
2022-09-12T20:39:01.342Z,8.55
2022-09-12T20:41:29.673Z,8.27
2022-09-12T20:43:57.599Z,8.43
2022-09-12T20:46:25.750Z,8.95
2022-09-12T20:48:53.286Z,8.30
2022-09-12T20:51:21.486Z,8.50
2022-09-12T20:53:48.894Z,7.82
2022-09-12T20:56:16.354Z,7.97
2022-09-12T20:58:44.652Z,8.00
2022-09-12T21:01:12.669Z,8.27
2022-09-12T21:03:40.331Z,7.95
2022-09-12T21:06:08.202Z,7.85
2022-09-12T21:08:35.857Z,8.02
2022-09-12T21:11:03.320Z,8.05
2022-09-12T21:13:30.508Z,7.70
2022-09-12T21:16:00.808Z,7.82
2022-09-12T21:18:28.473Z,8.32
2022-09-12T21:20:56.200Z,8.05
2022-09-12T21:23:24.065Z,9.15
2022-09-12T21:25:52.624Z,8.45
2022-09-12T21:28:20.466Z,9.15
2022-09-12T21:30:51.149Z,9.45
2022-09-12T21:33:19.263Z,9.75
2022-09-12T21:35:47.299Z,9.98
2022-09-12T21:38:18.347Z,10.35
2022-09-12T21:40:45.829Z,9.15
2022-09-12T21:43:13.357Z,9.65
2022-09-12T21:45:40.745Z,9.85
2022-09-12T21:48:08.233Z,10.15
2022-09-12T21:50:35.394Z,10.63
2022-09-12T21:53:03.040Z,9.60
2022-09-12T21:55:30.221Z,9.80
2022-09-12T21:57:57.425Z,10.60
2022-09-12T22:00:24.627Z,10.40
2022-09-12T22:02:52.593Z,10.02
2022-09-12T22:05:21.347Z,10.05
2022-09-12T22:07:48.612Z,10.20
2022-09-12T22:10:15.776Z,9.32
2022-09-12T22:12:46.044Z,9.55
2022-09-12T22:15:38.867Z,10.82
2022-09-12T22:18:00.952Z,10.23
2022-09-12T22:20:28.107Z,10.35
2022-09-12T22:23:14.229Z,9.95
2022-09-12T22:25:41.609Z,10.02
2022-09-12T22:28:08.737Z,11.02
2022-09-12T22:30:36.025Z,9.93
2022-09-12T22:33:03.161Z,9.98
2022-09-12T22:35:30.922Z,10.45
2022-09-12T22:37:58.065Z,10.60
2022-09-12T22:40:25.206Z,10.82
2022-09-12T22:42:53.340Z,12.65
2022-09-12T22:45:20.477Z,11.80
2022-09-12T22:47:47.844Z,12.68
2022-09-12T22:50:15.186Z,12.73
2022-09-12T22:52:42.370Z,14.43
2022-09-12T22:55:10.017Z,15.18
2022-09-12T22:57:37.774Z,13.07
2022-09-12T23:00:10.527Z,14.38
2022-09-12T23:02:38.133Z,13.27
2022-09-12T23:05:05.924Z,14.70
2022-09-12T23:07:33.552Z,13.93
2022-09-12T23:10:00.806Z,13.15
2022-09-12T23:12:28.015Z,15.25
2022-09-12T23:14:55.173Z,14.90
2022-09-12T23:17:22.333Z,14.35
2022-09-12T23:19:49.464Z,14.43
2022-09-12T23:22:16.633Z,14.25
2022-09-12T23:24:43.828Z,16.25
2022-09-12T23:27:11.042Z,16.75
2022-09-12T23:29:38.180Z,17.48
2022-09-12T23:32:05.646Z,17.17
2022-09-12T23:34:33.560Z,18.17
2022-09-12T23:37:00.707Z,17.73
2022-09-12T23:39:27.892Z,18.23
2022-09-12T23:41:55.632Z,20.08
2022-09-12T23:44:22.842Z,18.67
2022-09-12T23:46:49.999Z,18.42
2022-09-12T23:49:17.149Z,18.45
2022-09-12T23:51:44.809Z,19.85
2022-09-12T23:54:12.031Z,18.98
2022-09-12T23:56:39.199Z,17.88
2022-09-12T23:59:06.425Z,19.02
